sensor_id;sensor_type;location;lat;lon;timestamp;temperature;humidity
10566;DHT22;5331;48.148;16.326;2023-06-26T00:01:32;17.80;1.00
10566;DHT22;5331;48.148;16.326;2023-06-26T00:04:00;17.70;1.00
10566;DHT22;5331;48.148;16.326;2023-06-26T00:06:27;17.70;1.00
10566;DHT22;5331;48.148;16.326;2023-06-26T00:08:55;17.60;1.00
10566;DHT22;5331;48.148;16.326;2023-06-26T00:11:23;17.60;1.00
10566;DHT22;5331;48.148;16.326;2023-06-26T00:13:51;17.60;1.00
10566;DHT22;5331;48.148;16.326;2023-06-26T00:16:18;17.60;1.00
10566;DHT22;5331;48.148;16.326;2023-06-26T00:18:45;17.60;1.00
10566;DHT22;5331;48.148;16.326;2023-06-26T00:21:12;17.50;1.00
10566;DHT22;5331;48.148;16.326;2023-06-26T00:23:39;17.50;1.00
10566;DHT22;5331;48.148;16.326;2023-06-26T00:26:06;17.50;1.00
10566;DHT22;5331;48.148;16.326;2023-06-26T00:28:36;17.50;1.00
10566;DHT22;5331;48.148;16.326;2023-06-26T00:31:02;17.40;1.00
10566;DHT22;5331;48.148;16.326;2023-06-26T00:33:29;17.40;1.00
10566;DHT22;5331;48.148;16.326;2023-06-26T00:35:56;17.30;1.00
10566;DHT22;5331;48.148;16.326;2023-06-26T00:38:23;17.30;1.00
10566;DHT22;5331;48.148;16.326;2023-06-26T00:40:50;17.20;1.00
10566;DHT22;5331;48.148;16.326;2023-06-26T00:43:17;17.20;1.00
10566;DHT22;5331;48.148;16.326;2023-06-26T00:45:45;17.20;1.00
10566;DHT22;5331;48.148;16.326;2023-06-26T00:48:12;17.20;1.00
10566;DHT22;5331;48.148;16.326;2023-06-26T00:50:40;17.10;1.00
10566;DHT22;5331;48.148;16.326;2023-06-26T00:53:09;17.10;1.00
10566;DHT22;5331;48.148;16.326;2023-06-26T00:55:36;17.10;1.00
10566;DHT22;5331;48.148;16.326;2023-06-26T00:58:03;17.00;1.00
10566;DHT22;5331;48.148;16.326;2023-06-26T01:00:31;17.00;1.00
10566;DHT22;5331;48.148;16.326;2023-06-26T01:02:59;16.90;1.00
10566;DHT22;5331;48.148;16.326;2023-06-26T01:05:27;16.90;1.00
10566;DHT22;5331;48.148;16.326;2023-06-26T01:07:54;16.90;1.00
10566;DHT22;5331;48.148;16.326;2023-06-26T01:10:21;16.90;1.00
10566;DHT22;5331;48.148;16.326;2023-06-26T01:12:49;16.90;1.00
10566;DHT22;5331;48.148;16.326;2023-06-26T01:15:16;16.80;1.00
10566;DHT22;5331;48.148;16.326;2023-06-26T01:17:43;16.70;1.00
10566;DHT22;5331;48.148;16.326;2023-06-26T01:20:14;16.80;1.00
10566;DHT22;5331;48.148;16.326;2023-06-26T01:22:48;16.70;1.00
10566;DHT22;5331;48.148;16.326;2023-06-26T01:25:21;16.80;1.00
10566;DHT22;5331;48.148;16.326;2023-06-26T01:27:53;16.70;1.00
10566;DHT22;5331;48.148;16.326;2023-06-26T01:30:21;16.70;1.00
10566;DHT22;5331;48.148;16.326;2023-06-26T01:32:48;16.70;1.00
10566;DHT22;5331;48.148;16.326;2023-06-26T01:35:17;16.60;1.00
10566;DHT22;5331;48.148;16.326;2023-06-26T01:37:44;16.60;1.00
10566;DHT22;5331;48.148;16.326;2023-06-26T01:40:11;16.60;1.00
10566;DHT22;5331;48.148;16.326;2023-06-26T01:42:38;16.60;1.00
10566;DHT22;5331;48.148;16.326;2023-06-26T01:45:12;16.50;1.00
10566;DHT22;5331;48.148;16.326;2023-06-26T01:47:44;16.60;1.00
10566;DHT22;5331;48.148;16.326;2023-06-26T01:50:17;16.60;1.00
10566;DHT22;5331;48.148;16.326;2023-06-26T01:52:52;16.50;1.00
10566;DHT22;5331;48.148;16.326;2023-06-26T01:55:31;16.50;1.00
10566;DHT22;5331;48.148;16.326;2023-06-26T01:58:02;16.50;1.00
10566;DHT22;5331;48.148;16.326;2023-06-26T02:00:31;16.50;1.00
10566;DHT22;5331;48.148;16.326;2023-06-26T02:02:59;16.50;1.00
10566;DHT22;5331;48.148;16.326;2023-06-26T02:05:25;16.40;1.00
10566;DHT22;5331;48.148;16.326;2023-06-26T02:07:52;16.50;1.00
10566;DHT22;5331;48.148;16.326;2023-06-26T02:10:19;16.50;1.00
10566;DHT22;5331;48.148;16.326;2023-06-26T02:12:46;16.40;1.00
10566;DHT22;5331;48.148;16.326;2023-06-26T02:15:13;16.40;1.00
10566;DHT22;5331;48.148;16.326;2023-06-26T02:17:41;16.40;1.00
10566;DHT22;5331;48.148;16.326;2023-06-26T02:20:09;16.40;1.00
10566;DHT22;5331;48.148;16.326;2023-06-26T02:22:36;16.40;1.00
10566;DHT22;5331;48.148;16.326;2023-06-26T02:25:04;16.30;1.00
10566;DHT22;5331;48.148;16.326;2023-06-26T02:27:31;16.30;1.00
10566;DHT22;5331;48.148;16.326;2023-06-26T02:29:58;16.40;1.00
10566;DHT22;5331;48.148;16.326;2023-06-26T02:32:24;16.30;1.00
10566;DHT22;5331;48.148;16.326;2023-06-26T02:34:53;16.30;1.00
10566;DHT22;5331;48.148;16.326;2023-06-26T02:37:20;16.30;1.00
10566;DHT22;5331;48.148;16.326;2023-06-26T02:39:47;16.30;1.00
10566;DHT22;5331;48.148;16.326;2023-06-26T02:42:14;16.30;1.00
10566;DHT22;5331;48.148;16.326;2023-06-26T02:44:41;16.20;1.00
10566;DHT22;5331;48.148;16.326;2023-06-26T02:47:08;16.20;1.00
10566;DHT22;5331;48.148;16.326;2023-06-26T02:49:35;16.20;1.00
10566;DHT22;5331;48.148;16.326;2023-06-26T02:52:03;16.20;1.00
10566;DHT22;5331;48.148;16.326;2023-06-26T02:54:30;16.20;1.00
10566;DHT22;5331;48.148;16.326;2023-06-26T02:56:59;16.20;1.00
10566;DHT22;5331;48.148;16.326;2023-06-26T02:59:26;16.20;1.00
10566;DHT22;5331;48.148;16.326;2023-06-26T03:01:53;16.20;1.00
10566;DHT22;5331;48.148;16.326;2023-06-26T03:04:20;16.10;1.00
10566;DHT22;5331;48.148;16.326;2023-06-26T03:06:47;16.10;1.00
10566;DHT22;5331;48.148;16.326;2023-06-26T03:09:15;16.10;1.00
10566;DHT22;5331;48.148;16.326;2023-06-26T03:11:43;16.10;1.00
10566;DHT22;5331;48.148;16.326;2023-06-26T03:14:10;16.10;1.00
10566;DHT22;5331;48.148;16.326;2023-06-26T03:16:37;16.10;1.00
10566;DHT22;5331;48.148;16.326;2023-06-26T03:19:04;16.10;1.00
10566;DHT22;5331;48.148;16.326;2023-06-26T03:21:32;16.10;1.00
10566;DHT22;5331;48.148;16.326;2023-06-26T03:23:59;16.10;1.00
10566;DHT22;5331;48.148;16.326;2023-06-26T03:26:28;16.10;1.00
10566;DHT22;5331;48.148;16.326;2023-06-26T03:28:55;16.00;1.00
10566;DHT22;5331;48.148;16.326;2023-06-26T03:31:22;16.10;1.00
10566;DHT22;5331;48.148;16.326;2023-06-26T03:33:49;16.10;1.00
10566;DHT22;5331;48.148;16.326;2023-06-26T03:36:16;16.10;1.00
10566;DHT22;5331;48.148;16.326;2023-06-26T03:38:43;16.20;1.00
10566;DHT22;5331;48.148;16.326;2023-06-26T03:41:10;16.20;1.00
10566;DHT22;5331;48.148;16.326;2023-06-26T03:43:38;16.20;1.00
10566;DHT22;5331;48.148;16.326;2023-06-26T03:46:05;16.30;1.00
10566;DHT22;5331;48.148;16.326;2023-06-26T03:48:32;16.20;1.00
10566;DHT22;5331;48.148;16.326;2023-06-26T03:50:59;16.30;1.00
10566;DHT22;5331;48.148;16.326;2023-06-26T03:53:27;16.30;1.00
10566;DHT22;5331;48.148;16.326;2023-06-26T03:55:54;16.30;1.00
10566;DHT22;5331;48.148;16.326;2023-06-26T03:58:21;16.30;1.00
10566;DHT22;5331;48.148;16.326;2023-06-26T04:00:49;16.40;1.00
10566;DHT22;5331;48.148;16.326;2023-06-26T04:03:16;16.50;1.00
10566;DHT22;5331;48.148;16.326;2023-06-26T04:05:43;16.50;1.00
10566;DHT22;5331;48.148;16.326;2023-06-26T04:08:10;16.70;1.00
10566;DHT22;5331;48.148;16.326;2023-06-26T04:10:37;16.80;1.00
10566;DHT22;5331;48.148;16.326;2023-06-26T04:13:04;17.00;1.00
10566;DHT22;5331;48.148;16.326;2023-06-26T04:15:30;17.20;1.00
10566;DHT22;5331;48.148;16.326;2023-06-26T04:17:59;17.30;1.00
10566;DHT22;5331;48.148;16.326;2023-06-26T04:20:26;17.40;1.00
10566;DHT22;5331;48.148;16.326;2023-06-26T04:22:53;17.50;1.00
10566;DHT22;5331;48.148;16.326;2023-06-26T04:25:20;17.50;1.00
10566;DHT22;5331;48.148;16.326;2023-06-26T04:27:47;17.60;1.00
10566;DHT22;5331;48.148;16.326;2023-06-26T04:30:14;17.60;1.00
10566;DHT22;5331;48.148;16.326;2023-06-26T04:32:41;17.70;1.00
10566;DHT22;5331;48.148;16.326;2023-06-26T04:35:09;17.70;1.00
10566;DHT22;5331;48.148;16.326;2023-06-26T04:37:36;17.90;1.00
10566;DHT22;5331;48.148;16.326;2023-06-26T04:40:05;17.90;1.00
10566;DHT22;5331;48.148;16.326;2023-06-26T04:42:32;18.00;1.00
10566;DHT22;5331;48.148;16.326;2023-06-26T04:44:59;18.10;1.00
10566;DHT22;5331;48.148;16.326;2023-06-26T04:47:28;18.20;1.00
10566;DHT22;5331;48.148;16.326;2023-06-26T04:49:55;18.30;1.00
10566;DHT22;5331;48.148;16.326;2023-06-26T04:52:23;18.40;1.00
10566;DHT22;5331;48.148;16.326;2023-06-26T04:54:50;18.50;1.00
10566;DHT22;5331;48.148;16.326;2023-06-26T04:57:17;18.50;1.00
10566;DHT22;5331;48.148;16.326;2023-06-26T04:59:44;18.60;1.00
10566;DHT22;5331;48.148;16.326;2023-06-26T05:02:11;18.60;1.00
10566;DHT22;5331;48.148;16.326;2023-06-26T05:04:40;18.80;1.00
10566;DHT22;5331;48.148;16.326;2023-06-26T05:07:08;18.80;1.00
10566;DHT22;5331;48.148;16.326;2023-06-26T05:09:36;18.90;1.00
10566;DHT22;5331;48.148;16.326;2023-06-26T05:12:03;19.00;1.00
10566;DHT22;5331;48.148;16.326;2023-06-26T05:14:31;19.10;1.00
10566;DHT22;5331;48.148;16.326;2023-06-26T05:16:57;19.20;1.00
10566;DHT22;5331;48.148;16.326;2023-06-26T05:19:24;19.30;1.00
10566;DHT22;5331;48.148;16.326;2023-06-26T05:21:52;19.50;1.00
10566;DHT22;5331;48.148;16.326;2023-06-26T05:24:19;19.60;1.00
10566;DHT22;5331;48.148;16.326;2023-06-26T05:26:49;19.60;1.00
10566;DHT22;5331;48.148;16.326;2023-06-26T05:29:16;19.70;1.00
10566;DHT22;5331;48.148;16.326;2023-06-26T05:31:44;19.90;1.00
10566;DHT22;5331;48.148;16.326;2023-06-26T05:34:12;19.90;1.00
10566;DHT22;5331;48.148;16.326;2023-06-26T05:36:41;20.10;1.00
10566;DHT22;5331;48.148;16.326;2023-06-26T05:39:09;20.20;1.00
10566;DHT22;5331;48.148;16.326;2023-06-26T05:41:36;20.30;1.00
10566;DHT22;5331;48.148;16.326;2023-06-26T05:44:05;20.40;1.00
10566;DHT22;5331;48.148;16.326;2023-06-26T05:46:32;20.50;1.00
10566;DHT22;5331;48.148;16.326;2023-06-26T05:49:01;20.60;1.00
10566;DHT22;5331;48.148;16.326;2023-06-26T05:51:28;20.80;1.00
10566;DHT22;5331;48.148;16.326;2023-06-26T05:53:55;20.80;1.00
10566;DHT22;5331;48.148;16.326;2023-06-26T05:56:23;20.90;1.00
10566;DHT22;5331;48.148;16.326;2023-06-26T05:58:50;21.00;1.00
10566;DHT22;5331;48.148;16.326;2023-06-26T06:01:19;21.20;1.00
10566;DHT22;5331;48.148;16.326;2023-06-26T06:03:46;21.40;1.00
10566;DHT22;5331;48.148;16.326;2023-06-26T06:06:13;21.70;1.00
10566;DHT22;5331;48.148;16.326;2023-06-26T06:08:41;22.00;1.00
10566;DHT22;5331;48.148;16.326;2023-06-26T06:11:08;22.30;1.00
10566;DHT22;5331;48.148;16.326;2023-06-26T06:13:35;22.60;1.00
10566;DHT22;5331;48.148;16.326;2023-06-26T06:16:03;22.90;1.00
10566;DHT22;5331;48.148;16.326;2023-06-26T06:18:31;23.20;1.00
10566;DHT22;5331;48.148;16.326;2023-06-26T06:20:58;23.70;1.00
10566;DHT22;5331;48.148;16.326;2023-06-26T06:23:25;24.10;1.00
10566;DHT22;5331;48.148;16.326;2023-06-26T06:25:52;24.40;1.00
10566;DHT22;5331;48.148;16.326;2023-06-26T06:28:19;24.90;1.00
10566;DHT22;5331;48.148;16.326;2023-06-26T06:30:46;25.20;1.00
10566;DHT22;5331;48.148;16.326;2023-06-26T06:33:14;25.60;1.00
10566;DHT22;5331;48.148;16.326;2023-06-26T06:35:42;25.90;1.00
10566;DHT22;5331;48.148;16.326;2023-06-26T06:38:10;26.10;1.00
10566;DHT22;5331;48.148;16.326;2023-06-26T06:40:37;26.30;1.00
10566;DHT22;5331;48.148;16.326;2023-06-26T06:43:04;26.60;1.00
10566;DHT22;5331;48.148;16.326;2023-06-26T06:45:31;26.90;1.00
10566;DHT22;5331;48.148;16.326;2023-06-26T06:47:58;27.10;1.00
10566;DHT22;5331;48.148;16.326;2023-06-26T06:50:24;27.30;1.00
10566;DHT22;5331;48.148;16.326;2023-06-26T06:52:53;27.40;1.00
10566;DHT22;5331;48.148;16.326;2023-06-26T06:55:20;27.60;1.00
10566;DHT22;5331;48.148;16.326;2023-06-26T06:57:47;27.80;1.00
10566;DHT22;5331;48.148;16.326;2023-06-26T07:00:14;28.00;1.00
10566;DHT22;5331;48.148;16.326;2023-06-26T07:02:43;28.20;1.00
10566;DHT22;5331;48.148;16.326;2023-06-26T07:05:10;28.40;1.00
10566;DHT22;5331;48.148;16.326;2023-06-26T07:07:38;28.70;1.00
10566;DHT22;5331;48.148;16.326;2023-06-26T07:10:09;28.70;1.00
10566;DHT22;5331;48.148;16.326;2023-06-26T07:12:37;28.60;1.00
10566;DHT22;5331;48.148;16.326;2023-06-26T07:15:05;28.70;1.00
10566;DHT22;5331;48.148;16.326;2023-06-26T07:17:33;29.10;1.00
10566;DHT22;5331;48.148;16.326;2023-06-26T07:20:01;29.10;1.00
10566;DHT22;5331;48.148;16.326;2023-06-26T07:22:30;29.20;1.00
10566;DHT22;5331;48.148;16.326;2023-06-26T07:24:57;29.50;1.00
10566;DHT22;5331;48.148;16.326;2023-06-26T07:27:25;29.70;1.00
10566;DHT22;5331;48.148;16.326;2023-06-26T07:29:52;29.80;1.00
10566;DHT22;5331;48.148;16.326;2023-06-26T07:32:19;29.80;1.00
10566;DHT22;5331;48.148;16.326;2023-06-26T07:34:46;29.80;1.00
10566;DHT22;5331;48.148;16.326;2023-06-26T07:37:13;29.80;1.00
10566;DHT22;5331;48.148;16.326;2023-06-26T07:39:40;29.70;1.00
10566;DHT22;5331;48.148;16.326;2023-06-26T07:42:07;29.80;1.00
10566;DHT22;5331;48.148;16.326;2023-06-26T07:44:35;29.60;1.00
10566;DHT22;5331;48.148;16.326;2023-06-26T07:47:02;29.60;1.00
10566;DHT22;5331;48.148;16.326;2023-06-26T07:49:29;29.30;1.00
10566;DHT22;5331;48.148;16.326;2023-06-26T07:51:56;29.50;1.00
10566;DHT22;5331;48.148;16.326;2023-06-26T07:54:23;29.70;1.00
10566;DHT22;5331;48.148;16.326;2023-06-26T07:56:54;30.00;1.00
10566;DHT22;5331;48.148;16.326;2023-06-26T07:59:21;30.40;1.00
10566;DHT22;5331;48.148;16.326;2023-06-26T08:01:50;30.60;1.00
10566;DHT22;5331;48.148;16.326;2023-06-26T08:04:18;30.60;1.00
10566;DHT22;5331;48.148;16.326;2023-06-26T08:06:47;30.40;1.00
10566;DHT22;5331;48.148;16.326;2023-06-26T08:09:14;30.10;1.00
10566;DHT22;5331;48.148;16.326;2023-06-26T08:11:41;30.10;1.00
10566;DHT22;5331;48.148;16.326;2023-06-26T08:14:08;30.20;1.00
10566;DHT22;5331;48.148;16.326;2023-06-26T08:16:35;30.10;1.00
10566;DHT22;5331;48.148;16.326;2023-06-26T08:19:03;30.20;1.00
10566;DHT22;5331;48.148;16.326;2023-06-26T08:21:30;30.00;1.00
10566;DHT22;5331;48.148;16.326;2023-06-26T08:23:57;30.00;1.00
10566;DHT22;5331;48.148;16.326;2023-06-26T08:26:24;30.30;1.00
10566;DHT22;5331;48.148;16.326;2023-06-26T08:28:51;30.60;1.00
10566;DHT22;5331;48.148;16.326;2023-06-26T08:31:18;30.60;1.00
10566;DHT22;5331;48.148;16.326;2023-06-26T08:33:45;30.70;1.00
10566;DHT22;5331;48.148;16.326;2023-06-26T08:36:13;30.90;1.00
10566;DHT22;5331;48.148;16.326;2023-06-26T08:38:40;31.00;1.00
10566;DHT22;5331;48.148;16.326;2023-06-26T08:41:07;31.20;1.00
10566;DHT22;5331;48.148;16.326;2023-06-26T08:43:34;31.20;1.00
10566;DHT22;5331;48.148;16.326;2023-06-26T08:46:02;30.80;1.00
10566;DHT22;5331;48.148;16.326;2023-06-26T08:48:31;30.40;1.00
10566;DHT22;5331;48.148;16.326;2023-06-26T08:51:01;30.60;1.00
10566;DHT22;5331;48.148;16.326;2023-06-26T08:53:40;30.60;1.00
10566;DHT22;5331;48.148;16.326;2023-06-26T08:56:10;31.00;1.00
10566;DHT22;5331;48.148;16.326;2023-06-26T08:58:37;30.90;1.00
10566;DHT22;5331;48.148;16.326;2023-06-26T09:01:05;30.90;1.00
10566;DHT22;5331;48.148;16.326;2023-06-26T09:03:32;31.00;1.00
10566;DHT22;5331;48.148;16.326;2023-06-26T09:05:59;30.80;1.00
10566;DHT22;5331;48.148;16.326;2023-06-26T09:08:26;30.60;1.00
10566;DHT22;5331;48.148;16.326;2023-06-26T09:10:54;30.70;1.00
10566;DHT22;5331;48.148;16.326;2023-06-26T09:13:21;30.80;1.00
10566;DHT22;5331;48.148;16.326;2023-06-26T09:15:48;31.20;1.00
10566;DHT22;5331;48.148;16.326;2023-06-26T09:18:20;31.40;1.00
10566;DHT22;5331;48.148;16.326;2023-06-26T09:20:47;31.50;1.00
10566;DHT22;5331;48.148;16.326;2023-06-26T09:23:14;31.50;1.00
10566;DHT22;5331;48.148;16.326;2023-06-26T09:25:41;31.60;1.00
10566;DHT22;5331;48.148;16.326;2023-06-26T09:28:11;31.70;1.00
10566;DHT22;5331;48.148;16.326;2023-06-26T09:30:38;31.70;1.00
10566;DHT22;5331;48.148;16.326;2023-06-26T09:33:15;31.90;1.00
10566;DHT22;5331;48.148;16.326;2023-06-26T09:35:43;31.90;1.00
10566;DHT22;5331;48.148;16.326;2023-06-26T09:38:10;31.70;1.00
10566;DHT22;5331;48.148;16.326;2023-06-26T09:40:38;31.70;1.00
10566;DHT22;5331;48.148;16.326;2023-06-26T09:43:05;31.60;1.00
10566;DHT22;5331;48.148;16.326;2023-06-26T09:45:34;31.60;1.00
10566;DHT22;5331;48.148;16.326;2023-06-26T09:48:02;31.70;1.00
10566;DHT22;5331;48.148;16.326;2023-06-26T09:50:30;31.80;1.00
10566;DHT22;5331;48.148;16.326;2023-06-26T09:53:07;31.70;1.00
10566;DHT22;5331;48.148;16.326;2023-06-26T09:55:35;31.70;1.00
10566;DHT22;5331;48.148;16.326;2023-06-26T09:58:03;31.60;1.00
10566;DHT22;5331;48.148;16.326;2023-06-26T10:00:30;31.10;1.00
10566;DHT22;5331;48.148;16.326;2023-06-26T10:02:58;30.60;1.00
10566;DHT22;5331;48.148;16.326;2023-06-26T10:05:26;30.60;1.00
10566;DHT22;5331;48.148;16.326;2023-06-26T10:07:53;30.70;1.00
10566;DHT22;5331;48.148;16.326;2023-06-26T10:10:20;30.90;1.00
10566;DHT22;5331;48.148;16.326;2023-06-26T10:12:54;31.30;1.00
10566;DHT22;5331;48.148;16.326;2023-06-26T10:15:23;31.00;1.00
10566;DHT22;5331;48.148;16.326;2023-06-26T10:17:52;31.00;1.00
10566;DHT22;5331;48.148;16.326;2023-06-26T10:20:25;31.10;1.00
10566;DHT22;5331;48.148;16.326;2023-06-26T10:22:55;30.70;1.00
10566;DHT22;5331;48.148;16.326;2023-06-26T10:25:25;30.80;1.00
10566;DHT22;5331;48.148;16.326;2023-06-26T10:27:54;30.70;1.00
10566;DHT22;5331;48.148;16.326;2023-06-26T10:30:25;30.80;1.00
10566;DHT22;5331;48.148;16.326;2023-06-26T10:32:54;31.00;1.00
10566;DHT22;5331;48.148;16.326;2023-06-26T10:35:21;31.20;1.00
10566;DHT22;5331;48.148;16.326;2023-06-26T10:37:51;31.70;1.00
10566;DHT22;5331;48.148;16.326;2023-06-26T10:40:22;31.80;1.00
10566;DHT22;5331;48.148;16.326;2023-06-26T10:42:51;31.70;1.00
10566;DHT22;5331;48.148;16.326;2023-06-26T10:45:33;31.40;1.00
10566;DHT22;5331;48.148;16.326;2023-06-26T10:48:00;31.30;1.00
10566;DHT22;5331;48.148;16.326;2023-06-26T10:50:31;31.30;1.00
10566;DHT22;5331;48.148;16.326;2023-06-26T10:53:09;31.30;1.00
10566;DHT22;5331;48.148;16.326;2023-06-26T10:55:37;31.40;1.00
10566;DHT22;5331;48.148;16.326;2023-06-26T10:58:04;31.40;1.00
10566;DHT22;5331;48.148;16.326;2023-06-26T11:00:31;31.40;1.00
10566;DHT22;5331;48.148;16.326;2023-06-26T11:02:58;31.40;1.00
10566;DHT22;5331;48.148;16.326;2023-06-26T11:05:28;31.40;1.00
10566;DHT22;5331;48.148;16.326;2023-06-26T11:08:05;31.40;1.00
10566;DHT22;5331;48.148;16.326;2023-06-26T11:10:54;31.20;1.00
10566;DHT22;5331;48.148;16.326;2023-06-26T11:13:23;31.30;1.00
10566;DHT22;5331;48.148;16.326;2023-06-26T11:15:51;31.50;1.00
10566;DHT22;5331;48.148;16.326;2023-06-26T11:18:20;31.50;1.00
10566;DHT22;5331;48.148;16.326;2023-06-26T11:20:47;31.40;1.00
10566;DHT22;5331;48.148;16.326;2023-06-26T11:23:19;31.60;1.00
10566;DHT22;5331;48.148;16.326;2023-06-26T11:25:48;31.60;1.00
10566;DHT22;5331;48.148;16.326;2023-06-26T11:28:18;31.50;1.00
10566;DHT22;5331;48.148;16.326;2023-06-26T11:30:48;31.40;1.00
10566;DHT22;5331;48.148;16.326;2023-06-26T11:33:17;31.60;1.00
10566;DHT22;5331;48.148;16.326;2023-06-26T11:35:44;31.80;1.00
10566;DHT22;5331;48.148;16.326;2023-06-26T11:38:10;31.80;1.00
10566;DHT22;5331;48.148;16.326;2023-06-26T11:40:39;31.80;1.00
10566;DHT22;5331;48.148;16.326;2023-06-26T11:43:06;32.00;1.00
10566;DHT22;5331;48.148;16.326;2023-06-26T11:45:37;32.00;1.00
10566;DHT22;5331;48.148;16.326;2023-06-26T11:48:06;31.90;1.00
10566;DHT22;5331;48.148;16.326;2023-06-26T11:50:39;32.00;1.00
10566;DHT22;5331;48.148;16.326;2023-06-26T11:53:06;32.10;1.00
10566;DHT22;5331;48.148;16.326;2023-06-26T11:55:42;32.20;1.00
10566;DHT22;5331;48.148;16.326;2023-06-26T11:58:15;32.30;1.00
10566;DHT22;5331;48.148;16.326;2023-06-26T12:00:43;32.20;1.00
10566;DHT22;5331;48.148;16.326;2023-06-26T12:03:10;31.70;1.00
10566;DHT22;5331;48.148;16.326;2023-06-26T12:05:38;31.80;1.00
10566;DHT22;5331;48.148;16.326;2023-06-26T12:08:07;31.90;1.00
10566;DHT22;5331;48.148;16.326;2023-06-26T12:10:34;31.90;1.00
10566;DHT22;5331;48.148;16.326;2023-06-26T12:13:01;31.90;1.00
10566;DHT22;5331;48.148;16.326;2023-06-26T12:15:30;32.00;1.00
10566;DHT22;5331;48.148;16.326;2023-06-26T12:17:59;32.00;1.00
10566;DHT22;5331;48.148;16.326;2023-06-26T12:20:26;31.90;1.00
10566;DHT22;5331;48.148;16.326;2023-06-26T12:22:56;31.70;1.00
10566;DHT22;5331;48.148;16.326;2023-06-26T12:25:24;31.60;1.00
10566;DHT22;5331;48.148;16.326;2023-06-26T12:27:51;31.40;1.00
10566;DHT22;5331;48.148;16.326;2023-06-26T12:30:17;31.40;1.00
10566;DHT22;5331;48.148;16.326;2023-06-26T12:32:45;31.60;1.00
10566;DHT22;5331;48.148;16.326;2023-06-26T12:35:14;31.40;1.00
10566;DHT22;5331;48.148;16.326;2023-06-26T12:37:42;31.30;1.00
10566;DHT22;5331;48.148;16.326;2023-06-26T12:40:17;31.30;1.00
10566;DHT22;5331;48.148;16.326;2023-06-26T12:42:45;31.40;1.00
10566;DHT22;5331;48.148;16.326;2023-06-26T12:45:14;31.10;1.00
10566;DHT22;5331;48.148;16.326;2023-06-26T12:47:41;31.20;1.00
10566;DHT22;5331;48.148;16.326;2023-06-26T12:50:08;31.10;1.00
10566;DHT22;5331;48.148;16.326;2023-06-26T12:52:36;31.10;1.00
10566;DHT22;5331;48.148;16.326;2023-06-26T12:55:05;31.40;1.00
10566;DHT22;5331;48.148;16.326;2023-06-26T12:57:41;31.90;1.00
10566;DHT22;5331;48.148;16.326;2023-06-26T13:00:09;31.90;1.00
10566;DHT22;5331;48.148;16.326;2023-06-26T13:02:37;31.90;1.00
10566;DHT22;5331;48.148;16.326;2023-06-26T13:05:05;32.10;1.00
10566;DHT22;5331;48.148;16.326;2023-06-26T13:07:32;32.30;1.00
10566;DHT22;5331;48.148;16.326;2023-06-26T13:10:00;32.60;1.00
10566;DHT22;5331;48.148;16.326;2023-06-26T13:12:28;32.70;1.00
10566;DHT22;5331;48.148;16.326;2023-06-26T13:14:56;32.80;1.00
10566;DHT22;5331;48.148;16.326;2023-06-26T13:17:23;32.90;1.00
10566;DHT22;5331;48.148;16.326;2023-06-26T13:19:50;32.80;1.00
10566;DHT22;5331;48.148;16.326;2023-06-26T13:22:17;32.80;1.00
10566;DHT22;5331;48.148;16.326;2023-06-26T13:24:52;32.80;1.00
10566;DHT22;5331;48.148;16.326;2023-06-26T13:27:21;32.60;1.00
10566;DHT22;5331;48.148;16.326;2023-06-26T13:29:58;32.20;1.00
10566;DHT22;5331;48.148;16.326;2023-06-26T13:32:28;32.10;1.00
10566;DHT22;5331;48.148;16.326;2023-06-26T13:34:55;32.20;1.00
10566;DHT22;5331;48.148;16.326;2023-06-26T13:37:25;32.30;1.00
10566;DHT22;5331;48.148;16.326;2023-06-26T13:39:52;32.40;1.00
10566;DHT22;5331;48.148;16.326;2023-06-26T13:42:21;32.20;1.00
10566;DHT22;5331;48.148;16.326;2023-06-26T13:44:48;31.10;1.00
10566;DHT22;5331;48.148;16.326;2023-06-26T13:47:16;31.20;1.00
10566;DHT22;5331;48.148;16.326;2023-06-26T13:49:44;31.40;1.00
10566;DHT22;5331;48.148;16.326;2023-06-26T13:52:11;31.80;1.00
10566;DHT22;5331;48.148;16.326;2023-06-26T13:54:39;32.00;1.00
10566;DHT22;5331;48.148;16.326;2023-06-26T13:57:07;31.60;1.00
10566;DHT22;5331;48.148;16.326;2023-06-26T13:59:38;31.90;1.00
10566;DHT22;5331;48.148;16.326;2023-06-26T14:02:07;32.10;1.00
10566;DHT22;5331;48.148;16.326;2023-06-26T14:04:34;32.30;1.00
10566;DHT22;5331;48.148;16.326;2023-06-26T14:07:04;32.40;1.00
10566;DHT22;5331;48.148;16.326;2023-06-26T14:09:32;32.50;1.00
10566;DHT22;5331;48.148;16.326;2023-06-26T14:11:59;32.60;1.00
10566;DHT22;5331;48.148;16.326;2023-06-26T14:14:27;32.60;1.00
10566;DHT22;5331;48.148;16.326;2023-06-26T14:17:00;32.40;1.00
10566;DHT22;5331;48.148;16.326;2023-06-26T14:19:33;32.10;1.00
10566;DHT22;5331;48.148;16.326;2023-06-26T14:22:00;32.00;1.00
10566;DHT22;5331;48.148;16.326;2023-06-26T14:24:28;32.00;1.00
10566;DHT22;5331;48.148;16.326;2023-06-26T14:26:55;32.00;1.00
10566;DHT22;5331;48.148;16.326;2023-06-26T14:29:21;32.10;1.00
10566;DHT22;5331;48.148;16.326;2023-06-26T14:31:51;32.40;1.00
10566;DHT22;5331;48.148;16.326;2023-06-26T14:34:19;32.40;1.00
10566;DHT22;5331;48.148;16.326;2023-06-26T14:36:52;32.20;1.00
10566;DHT22;5331;48.148;16.326;2023-06-26T14:39:19;32.20;1.00
10566;DHT22;5331;48.148;16.326;2023-06-26T14:41:46;32.20;1.00
10566;DHT22;5331;48.148;16.326;2023-06-26T14:44:22;32.20;1.00
10566;DHT22;5331;48.148;16.326;2023-06-26T14:46:49;32.30;1.00
10566;DHT22;5331;48.148;16.326;2023-06-26T14:49:16;32.20;1.00
10566;DHT22;5331;48.148;16.326;2023-06-26T14:51:46;32.30;1.00
10566;DHT22;5331;48.148;16.326;2023-06-26T14:54:13;32.30;1.00
10566;DHT22;5331;48.148;16.326;2023-06-26T14:56:40;32.20;1.00
10566;DHT22;5331;48.148;16.326;2023-06-26T14:59:10;32.20;1.00
10566;DHT22;5331;48.148;16.326;2023-06-26T15:01:38;32.20;1.00
10566;DHT22;5331;48.148;16.326;2023-06-26T15:04:05;32.10;1.00
10566;DHT22;5331;48.148;16.326;2023-06-26T15:06:32;31.70;1.00
10566;DHT22;5331;48.148;16.326;2023-06-26T15:09:02;31.70;1.00
10566;DHT22;5331;48.148;16.326;2023-06-26T15:14:56;32.00;1.00
10566;DHT22;5331;48.148;16.326;2023-06-26T15:17:26;32.00;1.00
10566;DHT22;5331;48.148;16.326;2023-06-26T15:19:53;32.00;1.00
10566;DHT22;5331;48.148;16.326;2023-06-26T15:22:22;32.10;1.00
10566;DHT22;5331;48.148;16.326;2023-06-26T15:24:53;32.10;1.00
10566;DHT22;5331;48.148;16.326;2023-06-26T15:27:20;32.00;1.00
10566;DHT22;5331;48.148;16.326;2023-06-26T15:29:47;32.00;1.00
10566;DHT22;5331;48.148;16.326;2023-06-26T15:32:14;31.80;1.00
10566;DHT22;5331;48.148;16.326;2023-06-26T15:34:42;31.80;1.00
10566;DHT22;5331;48.148;16.326;2023-06-26T15:37:09;31.90;1.00
10566;DHT22;5331;48.148;16.326;2023-06-26T15:39:36;31.80;1.00
10566;DHT22;5331;48.148;16.326;2023-06-26T15:42:06;31.40;1.00
10566;DHT22;5331;48.148;16.326;2023-06-26T15:44:33;31.30;1.00
10566;DHT22;5331;48.148;16.326;2023-06-26T15:47:00;31.50;1.00
10566;DHT22;5331;48.148;16.326;2023-06-26T15:49:27;31.70;1.00
10566;DHT22;5331;48.148;16.326;2023-06-26T15:51:54;31.70;1.00
10566;DHT22;5331;48.148;16.326;2023-06-26T15:54:21;31.70;1.00